Time;durP1;ratioP1;P1;durP2;ratioP2;P2;SDS_P1;SDS_P2;PMS_P1;PMS_P2;Temp;Humidity;BMP_temperature;BMP_pressure;BME280_temperature;BME280_humidity;BME280_pressure;Samples;Min_cycle;Max_cycle;Signal;HPM_P1;HPM_P2
2023/04/06 00:01:27;;;;;;;6.53;5.28;;;;;;;11.17;81.71;101138.84;5079413;28;20024;-85
2023/04/06 00:03:53;;;;;;;6.88;5.40;;;;;;;11.35;82.09;101178.22;5075316;28;20099;-85
2023/04/06 00:06:18;;;;;;;6.43;5.70;;;;;;;10.84;82.46;101087.25;5093353;28;20539;-85
2023/04/06 00:08:44;;;;;;;6.80;5.22;;;;;;;10.84;82.10;101085.56;5075391;28;20508;-85
2023/04/06 00:11:10;;;;;;;6.80;5.40;;;;;;;11.30;82.22;101177.06;5093205;28;20463;-85
2023/04/06 00:13:35;;;;;;;8.13;5.60;;;;;;;11.31;82.28;101171.00;5092831;28;20036;-85
2023/04/06 00:16:01;;;;;;;6.43;5.43;;;;;;;10.89;82.46;101107.59;5074826;28;20085;-85
2023/04/06 00:18:26;;;;;;;7.07;5.68;;;;;;;10.83;82.65;101090.69;5075077;28;20031;-85
2023/04/06 00:20:52;;;;;;;6.60;5.38;;;;;;;10.99;82.14;101106.44;5093128;28;20035;-85
2023/04/06 00:23:18;;;;;;;6.72;5.18;;;;;;;11.05;81.78;101104.19;5093100;28;20025;-85
2023/04/06 00:25:43;;;;;;;5.55;4.95;;;;;;;11.14;82.02;101122.09;5092609;28;20020;-85
2023/04/06 00:28:09;;;;;;;7.30;5.40;;;;;;;11.31;82.60;101163.16;5074816;28;20040;-84
2023/04/06 00:30:35;;;;;;;6.40;5.13;;;;;;;11.32;82.15;101164.94;5092524;28;20490;-85
2023/04/06 00:33:00;;;;;;;6.35;5.13;;;;;;;11.30;82.77;101158.78;5092852;28;20024;-85
2023/04/06 00:35:26;;;;;;;5.78;4.80;;;;;;;11.05;82.63;101111.09;5092750;28;20031;-84
2023/04/06 00:37:52;;;;;;;6.07;5.20;;;;;;;11.21;81.88;101132.97;5092608;28;20024;-85
2023/04/06 00:40:17;;;;;;;7.25;5.50;;;;;;;11.20;81.74;101133.81;5092911;28;20061;-85
2023/04/06 00:42:43;;;;;;;6.40;4.93;;;;;;;11.26;82.24;101140.19;5074260;28;20052;-85
2023/04/06 00:45:09;;;;;;;5.95;5.10;;;;;;;11.21;82.46;101137.31;5074689;28;20056;-85
2023/04/06 00:47:35;;;;;;;;;;;;;;;11.31;82.17;101154.44;5092352;28;20102;-85
2023/04/06 00:50:01;;;;;;;5.72;4.55;;;;;;;11.19;82.57;101137.22;5074511;28;19940;-84
2023/04/06 00:52:26;;;;;;;6.07;5.32;;;;;;;10.88;82.56;101079.69;5091089;28;20031;-84
2023/04/06 00:54:52;;;;;;;6.32;5.15;;;;;;;11.15;82.00;101113.44;5091358;28;20033;-84
2023/04/06 00:57:18;;;;;;;6.07;5.30;;;;;;;11.31;82.14;101147.47;5092150;28;20031;-84
2023/04/06 00:59:44;;;;;;;5.82;4.78;;;;;;;10.94;82.11;101081.72;5073979;28;20089;-84
2023/04/06 01:02:10;;;;;;;7.45;5.25;;;;;;;11.18;82.35;101118.84;5074065;28;20031;-84
2023/04/06 01:04:36;;;;;;;6.38;5.03;;;;;;;10.90;82.07;101070.22;5092056;28;20027;-84
2023/04/06 01:07:01;;;;;;;6.70;5.10;;;;;;;11.23;82.22;101117.38;5073677;28;20053;-84
2023/04/06 01:09:30;;;;;;;6.22;4.85;;;;;;;11.26;81.74;101120.19;5092239;28;20032;-84
2023/04/06 01:11:59;;;;;;;6.13;4.90;;;;;;;11.17;82.58;101117.03;5077804;28;20032;-84
2023/04/06 01:14:25;;;;;;;6.25;5.40;;;;;;;11.30;82.06;101131.69;5074103;28;20035;-84
2023/04/06 01:16:51;;;;;;;;;;;;;;;11.29;82.42;101136.03;5074476;28;20024;-85
2023/04/06 01:19:17;;;;;;;6.45;4.80;;;;;;;11.11;82.43;101098.38;5073765;28;19915;-84
2023/04/06 01:21:42;;;;;;;6.00;4.80;;;;;;;11.15;82.13;101103.91;5073644;28;20043;-84
2023/04/06 01:24:09;;;;;;;5.10;4.60;;;;;;;11.29;82.34;101127.28;5073883;28;20024;-85
2023/04/06 01:26:35;;;;;;;5.47;4.72;;;;;;;11.32;81.89;101125.72;5091751;28;20034;-85
2023/04/06 01:29:01;;;;;;;4.90;4.43;;;;;;;11.31;82.08;101125.69;5091517;28;20038;-85
2023/04/06 01:31:27;;;;;;;;;;;;;;;11.30;81.93;101116.00;5074198;28;20072;-85
2023/04/06 01:33:53;;;;;;;6.15;4.90;;;;;;;11.28;82.43;101117.63;5074192;28;19912;-85
2023/04/06 01:36:19;;;;;;;5.45;4.50;;;;;;;11.25;82.42;101118.38;5056898;28;20028;-85
2023/04/06 01:38:45;;;;;;;5.68;4.75;;;;;;;11.12;82.16;101094.97;5073447;28;20462;-85
2023/04/06 01:41:11;;;;;;;6.30;5.25;;;;;;;11.27;82.24;101113.25;5087286;28;20056;-85
2023/04/06 01:43:36;;;;;;;5.57;4.72;;;;;;;11.28;82.10;101107.19;5053183;28;20514;-85
2023/04/06 01:46:02;;;;;;;5.60;4.97;;;;;;;10.83;82.37;101031.47;5071271;28;20024;-85
2023/04/06 01:48:28;;;;;;;5.57;4.68;;;;;;;10.98;82.17;101055.91;5069921;28;20039;-85
2023/04/06 01:50:54;;;;;;;6.32;4.85;;;;;;;10.97;81.96;101047.97;5071237;28;20386;-85
2023/04/06 01:53:20;;;;;;;6.28;5.28;;;;;;;11.07;81.85;101063.34;5070971;28;20043;-85
2023/04/06 01:55:45;;;;;;;6.80;5.32;;;;;;;11.18;82.50;101087.47;5053344;28;20024;-85
2023/04/06 01:58:11;;;;;;;6.72;4.88;;;;;;;11.26;82.04;101100.97;5056475;28;20482;-85
2023/04/06 02:00:37;;;;;;;6.30;5.13;;;;;;;10.88;82.29;101047.41;5052010;28;20620;-85
2023/04/06 02:03:03;;;;;;;5.25;4.57;;;;;;;10.95;81.98;101042.63;5052620;28;20490;-85
2023/04/06 02:05:30;;;;;;;5.60;4.63;;;;;;;11.21;81.94;101085.91;5070927;28;20038;-85
2023/04/06 02:07:56;;;;;;;5.10;4.60;;;;;;;11.09;82.01;101073.88;5052971;28;20417;-85
2023/04/06 02:10:23;;;;;;;5.95;5.30;;;;;;;11.05;81.65;101053.59;5052919;28;20028;-85
2023/04/06 02:12:49;;;;;;;5.32;4.60;;;;;;;11.08;81.84;101061.63;5052837;28;20047;-85
2023/04/06 02:15:15;;;;;;;6.30;5.05;;;;;;;11.19;82.16;101095.38;5053140;28;20032;-85
2023/04/06 02:17:42;;;;;;;6.10;4.90;;;;;;;11.12;82.07;101081.91;5076012;28;20505;-85
2023/04/06 02:20:08;;;;;;;6.57;4.80;;;;;;;11.09;81.99;101071.25;5053816;28;20090;-85
2023/04/06 02:22:35;;;;;;;7.75;4.90;;;;;;;11.12;81.83;101082.78;5070364;28;20043;-85
2023/04/06 02:25:01;;;;;;;5.68;4.88;;;;;;;11.22;81.90;101097.31;5053093;28;20055;-84
2023/04/06 02:27:26;;;;;;;7.70;4.93;;;;;;;11.02;81.63;101064.78;5070398;28;20039;-85
2023/04/06 02:29:52;;;;;;;6.72;4.53;;;;;;;10.92;81.90;101052.00;5052690;28;20064;-85
2023/04/06 02:32:18;;;;;;;5.28;4.75;;;;;;;11.24;82.28;101110.44;5070624;28;20048;-85
2023/04/06 02:34:43;;;;;;;5.97;4.88;;;;;;;11.06;82.19;101078.94;5070866;28;20036;-85
2023/04/06 02:37:10;;;;;;;6.00;4.68;;;;;;;11.12;82.01;101087.13;5066568;28;20689;-85
2023/04/06 02:39:36;;;;;;;5.35;4.45;;;;;;;10.92;81.50;101054.63;5070926;28;20033;-85
2023/04/06 02:42:01;;;;;;;5.20;4.53;;;;;;;10.84;82.00;101037.59;5056012;28;20102;-85
2023/04/06 02:44:27;;;;;;;5.13;4.60;;;;;;;11.23;81.66;101091.25;5059622;28;20032;-85
2023/04/06 02:46:52;;;;;;;5.82;4.85;;;;;;;10.89;81.79;101037.06;5054746;28;20033;-84
2023/04/06 02:49:18;;;;;;;5.45;4.65;;;;;;;10.90;82.12;101043.19;5070702;28;20470;-85
2023/04/06 02:51:44;;;;;;;6.55;4.80;;;;;;;10.88;81.69;101035.28;5069592;28;20036;-85
2023/04/06 02:54:09;;;;;;;6.00;4.97;;;;;;;11.15;82.00;101084.69;5070461;28;20029;-84
2023/04/06 02:56:35;;;;;;;6.22;4.75;;;;;;;10.99;82.07;101060.28;5070550;28;20036;-85
2023/04/06 02:59:00;;;;;;;5.47;4.80;;;;;;;11.19;81.89;101092.78;5052464;28;20120;-84
2023/04/06 03:01:26;;;;;;;5.13;4.57;;;;;;;11.14;81.71;101077.66;5070359;28;20040;-84
2023/04/06 03:03:52;;;;;;;5.53;4.90;;;;;;;11.13;81.73;101078.47;5051789;28;20494;-85
2023/04/06 03:06:17;;;;;;;5.20;4.30;;;;;;;10.88;81.95;101030.06;5072639;28;20021;-85
2023/04/06 03:08:43;;;;;;;6.63;4.80;;;;;;;11.15;81.63;101083.00;5070356;28;20039;-84
2023/04/06 03:11:08;;;;;;;5.40;4.60;;;;;;;11.03;81.90;101068.28;5052085;28;20409;-85
2023/04/06 03:13:36;;;;;;;5.93;4.90;;;;;;;11.04;82.11;101059.66;5068197;28;20456;-84
2023/04/06 03:16:01;;;;;;;6.05;4.63;;;;;;;11.05;82.06;101058.81;5062050;28;20028;-84
2023/04/06 03:18:27;;;;;;;5.28;4.60;;;;;;;11.19;81.62;101092.78;5074002;28;20024;-84
2023/04/06 03:20:55;;;;;;;5.80;4.65;;;;;;;11.11;81.81;101077.47;5073612;28;20028;-85
2023/04/06 03:23:21;;;;;;;5.53;4.47;;;;;;;10.93;81.98;101052.09;5073795;28;20028;-84
2023/04/06 03:25:46;;;;;;;5.65;4.65;;;;;;;11.06;81.93;101074.59;5056210;28;20126;-85
2023/04/06 03:28:12;;;;;;;5.78;4.82;;;;;;;10.70;81.98;101018.53;5055607;28;20028;-84
2023/04/06 03:30:37;;;;;;;5.55;4.95;;;;;;;11.16;81.92;101097.84;5074063;28;20028;-84
2023/04/06 03:33:03;;;;;;;5.15;4.45;;;;;;;10.82;82.03;101040.16;5073090;28;20031;-85
2023/04/06 03:35:29;;;;;;;6.20;4.80;;;;;;;10.73;81.62;101030.09;5056035;28;20468;-86
2023/04/06 03:37:55;;;;;;;4.88;4.32;;;;;;;10.83;81.97;101048.88;5073238;28;20037;-86
2023/04/06 03:40:20;;;;;;;5.15;4.53;;;;;;;10.99;81.90;101064.63;5073197;28;20032;-85
2023/04/06 03:42:46;;;;;;;6.78;4.40;;;;;;;11.02;81.88;101070.00;5069504;28;20083;-85
2023/04/06 03:45:13;;;;;;;5.32;4.57;;;;;;;11.04;81.33;101075.34;5072258;28;20418;-85
2023/04/06 03:47:39;;;;;;;5.05;4.40;;;;;;;10.97;81.72;101061.91;5073507;28;20170;-85
2023/04/06 03:50:06;;;;;;;4.95;4.32;;;;;;;10.87;81.90;101051.75;5073416;28;20561;-85
2023/04/06 03:52:31;;;;;;;;;;;;;;;11.17;81.77;101098.72;5072396;28;20029;-85
2023/04/06 03:54:57;;;;;;;6.07;4.50;;;;;;;11.13;81.80;101091.53;5073324;28;20309;-85
2023/04/06 03:57:22;;;;;;;5.32;4.55;;;;;;;11.09;81.80;101098.31;5072784;28;20115;-85
2023/04/06 03:59:48;;;;;;;5.32;4.30;;;;;;;11.09;81.72;101100.94;5073023;28;20033;-84
2023/04/06 04:02:13;;;;;;;5.25;4.38;;;;;;;11.00;82.14;101090.81;5072996;28;20025;-84
2023/04/06 04:04:39;;;;;;;6.55;4.57;;;;;;;11.00;81.99;101085.59;5073086;28;20056;-84
2023/04/06 04:07:04;;;;;;;5.95;5.00;;;;;;;10.94;82.05;101077.44;5072503;28;20021;-84
2023/04/06 04:09:30;;;;;;;5.10;4.60;;;;;;;11.06;81.97;101092.00;5054786;28;20040;-84
2023/04/06 04:11:55;;;;;;;5.72;4.60;;;;;;;10.93;81.63;101070.38;5073270;28;20425;-85
2023/04/06 04:14:21;;;;;;;5.88;4.70;;;;;;;11.07;81.27;101089.50;5072945;28;20051;-85
2023/04/06 04:16:47;;;;;;;5.68;4.50;;;;;;;10.92;81.89;101076.44;5071677;28;20415;-85
2023/04/06 04:19:12;;;;;;;5.35;4.50;;;;;;;10.94;81.35;101077.44;5054796;28;20046;-85
2023/04/06 04:21:46;;;;;;;5.00;4.50;;;;;;;10.99;81.56;101091.66;5071530;28;20060;-85
2023/04/06 04:24:11;;;;;;;5.97;4.95;;;;;;;11.08;81.87;101096.50;5071185;28;20043;-85
2023/04/06 04:26:38;;;;;;;8.55;4.60;;;;;;;11.11;81.69;101107.16;5070821;28;20020;-85
2023/04/06 04:29:04;;;;;;;4.82;4.18;;;;;;;10.85;81.99;101079.50;5072221;28;20391;-85
2023/04/06 04:31:30;;;;;;;5.07;4.38;;;;;;;11.06;82.16;101112.91;5071560;28;20063;-85
2023/04/06 04:33:55;;;;;;;6.00;4.72;;;;;;;10.61;81.92;101037.19;5071294;28;20090;-85
2023/04/06 04:36:21;;;;;;;5.50;4.82;;;;;;;10.88;82.04;101077.09;5071037;28;20775;-85
2023/04/06 04:38:47;;;;;;;5.78;4.75;;;;;;;11.08;82.00;101112.19;5072353;28;20115;-85
2023/04/06 04:41:12;;;;;;;6.78;4.68;;;;;;;10.83;81.94;101080.22;5072038;28;20516;-85
2023/04/06 04:43:38;;;;;;;5.75;4.97;;;;;;;10.51;81.84;101022.69;5072059;28;20039;-85
2023/04/06 04:46:04;;;;;;;5.63;4.57;;;;;;;11.03;81.70;101104.88;5072200;28;20108;-85
2023/04/06 04:48:30;;;;;;;6.95;4.32;;;;;;;10.77;81.99;101066.00;5072443;28;20063;-86
2023/04/06 04:50:55;;;;;;;5.95;4.82;;;;;;;10.65;81.98;101046.13;5072324;28;20048;-85
2023/04/06 04:53:21;;;;;;;5.55;4.30;;;;;;;10.81;81.98;101074.91;5072055;28;20025;-85
2023/04/06 04:55:47;;;;;;;5.30;4.70;;;;;;;10.88;81.90;101094.44;5068680;28;20656;-85
2023/04/06 04:58:16;;;;;;;5.47;4.63;;;;;;;10.94;81.74;101105.25;5045370;28;20037;-85
2023/04/06 05:00:42;;;;;;;5.50;5.00;;;;;;;10.93;81.89;101103.47;5075936;28;20024;-85
2023/04/06 05:03:09;;;;;;;5.82;4.85;;;;;;;11.04;81.90;101115.44;5051744;28;20037;-85
2023/04/06 05:05:35;;;;;;;6.65;4.30;;;;;;;10.90;81.86;101100.66;5052282;28;20032;-85
2023/04/06 05:08:01;;;;;;;5.32;4.32;;;;;;;10.90;81.66;101093.75;5063884;28;20036;-85
2023/04/06 05:10:27;;;;;;;5.57;4.85;;;;;;;10.97;81.58;101111.56;5041380;28;20067;-85
2023/04/06 05:12:52;;;;;;;6.13;5.00;;;;;;;10.91;81.90;101097.25;5071470;28;20067;-85
2023/04/06 05:15:18;;;;;;;5.50;4.72;;;;;;;10.85;81.86;101081.22;5072167;28;20122;-86
2023/04/06 05:17:44;;;;;;;6.05;4.90;;;;;;;10.79;81.56;101079.13;5051006;28;20035;-85
2023/04/06 05:20:10;;;;;;;6.80;5.05;;;;;;;11.02;81.87;101117.06;5068549;28;20067;-85
2023/04/06 05:22:35;;;;;;;6.95;5.03;;;;;;;11.02;81.91;101121.38;5054017;28;20032;-86
2023/04/06 05:25:02;;;;;;;5.45;4.85;;;;;;;10.95;82.41;101125.38;5045892;28;20070;-84
2023/04/06 05:27:28;;;;;;;5.78;4.95;;;;;;;10.97;81.82;101119.41;5067987;28;20119;-84
2023/04/06 05:29:56;;;;;;;5.47;4.57;;;;;;;10.98;81.77;101128.13;5073336;28;20107;-84
2023/04/06 05:32:27;;;;;;;6.07;4.72;;;;;;;10.84;81.54;101095.06;5071844;28;20033;-90
2023/04/06 05:34:52;;;;;;;6.10;4.65;;;;;;;10.94;81.31;101121.84;5046244;28;20094;-84
2023/04/06 05:37:18;;;;;;;6.63;5.30;;;;;;;10.71;81.53;101085.63;5048246;28;20730;-84
2023/04/06 05:39:44;;;;;;;6.65;5.32;;;;;;;10.93;81.52;101119.16;5070273;28;20543;-84
2023/04/06 05:42:11;;;;;;;6.97;5.53;;;;;;;10.97;81.76;101132.47;5050558;28;20040;-84
2023/04/06 05:44:38;;;;;;;7.75;5.35;;;;;;;10.69;81.71;101088.19;5073624;28;20036;-84
2023/04/06 05:47:05;;;;;;;7.07;5.32;;;;;;;10.53;81.79;101056.75;5077265;28;20059;-85
2023/04/06 05:49:31;;;;;;;;;;;;;;;10.95;81.87;101133.19;5051536;28;20029;-85
2023/04/06 05:51:57;;;;;;;6.05;5.10;;;;;;;10.85;81.74;101100.41;5066863;28;19913;-84
2023/04/06 05:54:22;;;;;;;7.53;5.70;;;;;;;10.84;81.73;101102.91;5073338;28;20051;-84
2023/04/06 05:56:48;;;;;;;10.18;6.30;;;;;;;10.81;81.56;101101.03;5044451;28;20120;-85
2023/04/06 05:59:15;;;;;;;7.65;5.55;;;;;;;10.74;81.18;101085.81;5070171;28;20434;-84
2023/04/06 06:01:40;;;;;;;10.75;5.85;;;;;;;10.76;81.67;101092.94;5051250;28;20037;-85
2023/04/06 06:04:06;;;;;;;7.15;5.60;;;;;;;10.97;81.70;101118.50;5070335;28;20037;-86
2023/04/06 06:06:32;;;;;;;7.07;5.93;;;;;;;10.62;81.38;101051.16;5049648;28;20031;-85
2023/04/06 06:09:00;;;;;;;6.53;5.50;;;;;;;10.67;81.35;101074.13;5052133;28;20029;-85
2023/04/06 06:11:27;;;;;;;7.28;5.78;;;;;;;10.70;81.58;101068.16;5069918;28;20569;-86
2023/04/06 06:13:52;;;;;;;7.53;5.68;;;;;;;10.57;81.70;101057.00;5055484;28;20013;-86
2023/04/06 06:16:18;;;;;;;6.90;5.75;;;;;;;10.95;81.58;101114.91;5051350;28;20055;-86
2023/04/06 06:18:44;;;;;;;8.13;6.03;;;;;;;10.93;81.56;101106.97;5067288;28;20035;-85
2023/04/06 06:21:12;;;;;;;8.15;6.07;;;;;;;10.54;81.73;101043.78;5044212;28;20071;-85
2023/04/06 06:23:37;;;;;;;8.40;6.05;;;;;;;10.80;81.33;101089.69;5035130;28;20170;-85
2023/04/06 06:26:04;;;;;;;7.50;5.93;;;;;;;10.93;81.48;101116.53;5054659;28;20106;-85
2023/04/06 06:28:29;;;;;;;8.02;6.20;;;;;;;10.79;81.36;101093.13;5051326;28;20043;-85
2023/04/06 06:30:55;;;;;;;7.80;5.90;;;;;;;10.58;81.20;101051.00;5047511;28;20029;-85
2023/04/06 06:33:21;;;;;;;8.57;6.00;;;;;;;10.86;81.38;101112.66;5069810;28;20036;-85
2023/04/06 06:35:46;;;;;;;7.85;5.38;;;;;;;10.89;81.77;101117.16;5064114;28;20048;-85
2023/04/06 06:38:12;;;;;;;9.57;6.10;;;;;;;10.89;81.66;101125.91;5066691;28;20029;-86
2023/04/06 06:40:37;;;;;;;8.45;6.28;;;;;;;10.84;81.53;101121.19;5048360;28;20122;-86
2023/04/06 06:43:05;;;;;;;7.45;5.68;;;;;;;10.82;81.69;101110.69;5084865;28;20071;-86
2023/04/06 06:45:31;;;;;;;10.57;6.00;;;;;;;10.76;81.85;101097.25;5070367;28;20028;-86
2023/04/06 06:47:57;;;;;;;8.32;5.85;;;;;;;10.78;81.60;101103.47;5090900;28;20777;-85
2023/04/06 06:50:22;;;;;;;10.07;6.78;;;;;;;10.77;81.31;101094.75;5071152;28;20047;-86
2023/04/06 06:52:49;;;;;;;8.27;5.75;;;;;;;10.55;81.13;101066.47;5094659;28;20027;-86
2023/04/06 06:55:15;;;;;;;8.98;6.30;;;;;;;10.81;81.45;101111.47;5077348;28;20032;-89
2023/04/06 06:57:42;;;;;;;9.07;6.15;;;;;;;10.71;81.57;101088.25;5093408;28;20039;-86
2023/04/06 07:00:08;;;;;;;9.63;6.65;;;;;;;10.47;81.44;101052.03;5059876;28;20032;-86
2023/04/06 07:02:35;;;;;;;9.07;6.72;;;;;;;10.50;81.50;101056.56;5087135;28;20417;-86
2023/04/06 07:05:01;;;;;;;9.55;6.10;;;;;;;10.94;81.17;101129.69;5093873;28;20040;-83
2023/04/06 07:07:27;;;;;;;8.80;5.80;;;;;;;10.80;81.27;101107.97;5076706;28;20051;-86
2023/04/06 07:09:53;;;;;;;8.38;6.10;;;;;;;10.63;81.44;101079.09;5092973;28;20117;-86
2023/04/06 07:12:18;;;;;;;9.85;6.40;;;;;;;10.45;81.52;101052.78;5059104;28;20085;-86
2023/04/06 07:14:44;;;;;;;10.43;6.18;;;;;;;10.53;81.65;101073.28;5076061;28;20028;-85
2023/04/06 07:17:10;;;;;;;8.75;5.75;;;;;;;10.93;81.72;101137.44;5069932;28;20606;-86
2023/04/06 07:19:36;;;;;;;7.35;6.28;;;;;;;10.66;81.65;101081.84;5075950;28;20509;-85
2023/04/06 07:22:03;;;;;;;10.95;6.88;;;;;;;10.89;81.61;101118.06;5075598;28;20089;-86
2023/04/06 07:24:28;;;;;;;8.20;5.97;;;;;;;10.95;82.05;101136.72;5075560;28;20561;-85
2023/04/06 07:26:56;;;;;;;8.63;6.20;;;;;;;10.99;81.50;101135.19;5073363;28;20523;-86
2023/04/06 07:29:21;;;;;;;8.52;5.75;;;;;;;10.80;81.75;101099.25;5075631;28;20641;-86
2023/04/06 07:31:48;;;;;;;7.32;5.80;;;;;;;10.69;81.89;101082.94;5092709;28;20085;-86
2023/04/06 07:34:14;;;;;;;8.70;6.05;;;;;;;10.85;81.94;101116.06;5059426;28;20489;-86
2023/04/06 07:36:40;;;;;;;8.15;6.07;;;;;;;10.95;81.58;101115.81;5075228;28;20024;-86
2023/04/06 07:39:06;;;;;;;9.07;5.72;;;;;;;10.71;81.44;101072.56;5075556;28;20602;-86
2023/04/06 07:41:32;;;;;;;8.32;5.97;;;;;;;10.94;81.63;101120.94;5075534;28;20071;-86
2023/04/06 07:44:00;;;;;;;9.00;6.07;;;;;;;10.91;82.48;101123.38;5093372;28;20105;-87
2023/04/06 07:46:25;;;;;;;8.68;5.95;;;;;;;10.70;82.52;101089.06;5059083;28;20044;-86
2023/04/06 07:48:51;;;;;;;8.70;6.32;;;;;;;10.71;81.98;101080.41;5074686;28;20642;-88
2023/04/06 07:51:17;;;;;;;8.77;5.90;;;;;;;10.66;82.45;101068.81;5057885;28;20038;-86
2023/04/06 07:53:44;;;;;;;8.85;5.63;;;;;;;10.66;82.38;101060.97;5082701;28;20035;-85
2023/04/06 07:56:10;;;;;;;8.80;5.65;;;;;;;11.03;82.28;101125.78;5069399;28;20036;-85
2023/04/06 07:58:36;;;;;;;8.25;6.05;;;;;;;10.58;82.35;101050.06;5077054;28;20497;-86
2023/04/06 08:01:01;;;;;;;7.28;5.18;;;;;;;10.51;81.79;101017.47;5083001;28;20028;-86
2023/04/06 08:03:27;;;;;;;6.57;5.20;;;;;;;10.97;81.97;101097.59;5093941;28;20195;-84
2023/04/06 08:05:53;;;;;;;7.68;5.90;;;;;;;10.98;82.51;101096.78;5072666;28;20036;-88
2023/04/06 08:08:20;;;;;;;7.65;5.78;;;;;;;11.12;82.46;101137.69;5056555;28;20035;-86
2023/04/06 08:10:49;;;;;;;8.00;5.78;;;;;;;11.12;82.33;101128.94;5072067;28;20023;-86
2023/04/06 08:13:15;;;;;;;8.75;5.82;;;;;;;10.99;82.23;101098.59;5075937;28;20024;-87
2023/04/06 08:15:40;;;;;;;;;;;;;;;11.21;82.60;101129.47;5091791;28;20088;-86
2023/04/06 08:18:06;;;;;;;6.45;5.20;;;;;;;11.08;82.17;101099.13;5091768;28;19912;-86
2023/04/06 08:20:32;;;;;;;7.35;5.63;;;;;;;10.95;82.04;101067.88;5092530;28;20032;-87
2023/04/06 08:22:57;;;;;;;7.93;5.53;;;;;;;11.12;82.51;101095.88;5092583;28;20028;-89
2023/04/06 08:25:23;;;;;;;8.23;6.07;;;;;;;10.94;82.60;101066.06;5073734;28;20028;-88
2023/04/06 08:27:49;;;;;;;8.38;5.38;;;;;;;11.16;82.94;101100.44;5095479;28;20039;-86
2023/04/06 08:30:15;;;;;;;9.90;5.93;;;;;;;11.00;82.95;101069.03;5075820;28;20035;-86
2023/04/06 08:32:41;;;;;;;;;;;;;;;11.35;83.25;101123.31;5085070;28;20071;-87
2023/04/06 08:35:07;;;;;;;10.18;5.70;;;;;;;11.24;83.51;101106.13;5092351;28;20025;-86
2023/04/06 08:37:33;;;;;;;10.57;5.78;;;;;;;11.12;84.50;101088.03;5074799;28;20028;-86
2023/04/06 08:39:58;;;;;;;8.68;5.53;;;;;;;10.99;84.15;101065.53;5091355;28;20496;-86
2023/04/06 08:42:26;;;;;;;7.55;5.35;;;;;;;11.17;84.62;101085.66;5078031;28;20131;-86
2023/04/06 08:44:53;;;;;;;9.60;5.50;;;;;;;11.18;85.38;101091.00;5089756;28;20024;-86
2023/04/06 08:47:24;;;;;;;7.38;5.45;;;;;;;11.19;85.44;101090.16;5072010;28;20508;-86
2023/04/06 08:49:50;;;;;;;9.73;5.85;;;;;;;11.34;85.30;101110.16;5100009;28;20059;-87
2023/04/06 08:52:18;;;;;;;9.10;5.78;;;;;;;11.39;86.12;101124.41;5090016;28;20008;-86
2023/04/06 08:54:44;;;;;;;9.25;5.53;;;;;;;11.19;85.96;101079.69;5086918;28;20032;-87
2023/04/06 08:57:11;;;;;;;9.05;5.80;;;;;;;11.41;86.31;101121.03;5087533;28;20509;-86
2023/04/06 08:59:37;;;;;;;8.43;5.43;;;;;;;11.33;86.76;101098.78;5057643;28;20036;-87
2023/04/06 09:02:05;;;;;;;8.90;5.88;;;;;;;11.19;86.60;101068.34;5089478;28;20031;-87
2023/04/06 09:04:32;;;;;;;10.73;6.00;;;;;;;11.33;87.78;101095.28;5078042;28;20027;-86
2023/04/06 09:06:58;;;;;;;12.25;5.97;;;;;;;11.35;87.97;101098.88;5072312;28;20032;-86
2023/04/06 09:09:24;;;;;;;8.80;5.82;;;;;;;11.39;88.63;101109.59;5089964;28;20563;-86
2023/04/06 09:11:51;;;;;;;12.25;6.50;;;;;;;11.25;88.52;101079.16;5089191;28;20147;-86
2023/04/06 09:14:17;;;;;;;15.35;7.10;;;;;;;11.40;89.66;101092.19;5090040;28;20042;-85
2023/04/06 09:16:45;;;;;;;18.55;6.97;;;;;;;11.49;89.83;101103.16;5089238;28;20106;-86
2023/04/06 09:19:11;;;;;;;17.35;7.55;;;;;;;11.47;90.81;101101.28;5072254;28;20047;-86
2023/04/06 09:21:39;;;;;;;18.40;7.80;;;;;;;11.51;91.45;101104.13;5090632;28;20032;-86
2023/04/06 09:24:07;;;;;;;16.67;7.70;;;;;;;11.53;92.03;101107.72;5083071;28;20024;-86
2023/04/06 09:26:33;;;;;;;16.80;7.97;;;;;;;11.54;91.49;101101.72;5073087;28;20065;-85
2023/04/06 09:29:00;;;;;;;;;;;;;;;11.53;91.97;101102.50;5056792;28;20032;-86
2023/04/06 09:31:35;;;;;;;15.20;7.55;;;;;;;11.27;92.62;101048.78;5089528;28;19923;-85
2023/04/06 09:34:01;;;;;;;16.73;7.82;;;;;;;11.55;92.35;101090.41;5071136;28;20040;-89
2023/04/06 09:36:35;;;;;;;17.63;7.97;;;;;;;11.29;91.96;101041.03;5073592;28;20028;-87
2023/04/06 09:39:04;;;;;;;18.88;8.90;;;;;;;11.59;91.98;101091.50;5073384;28;20032;-86
2023/04/06 09:41:31;;;;;;;15.85;7.97;;;;;;;11.61;92.61;101095.09;5066727;28;20051;-86
2023/04/06 09:44:07;;;;;;;16.50;7.93;;;;;;;11.65;91.99;101088.31;5053628;28;20029;-87
2023/04/06 09:46:34;;;;;;;15.57;8.18;;;;;;;11.57;91.87;101073.09;5053811;28;20035;-86
2023/04/06 09:49:02;;;;;;;17.25;9.15;;;;;;;11.66;92.26;101083.16;5036055;28;20024;-87
2023/04/06 09:51:30;;;;;;;16.48;8.48;;;;;;;11.68;92.00;101078.00;5053374;28;20032;-86
2023/04/06 09:54:01;;;;;;;15.63;8.57;;;;;;;11.32;92.78;101015.03;5053442;28;20024;-88
2023/04/06 09:56:28;;;;;;;16.17;8.43;;;;;;;11.67;92.69;101074.50;5054719;28;20028;-87
2023/04/06 09:58:57;;;;;;;16.35;8.40;;;;;;;11.46;93.21;101039.34;5052935;28;20035;-88
2023/04/06 10:01:27;;;;;;;16.67;8.38;;;;;;;11.45;92.85;101037.53;5071533;28;20405;-88
2023/04/06 10:03:59;;;;;;;15.85;8.23;;;;;;;11.51;93.19;101056.16;5040638;28;20025;-88
2023/04/06 10:06:27;;;;;;;15.40;8.45;;;;;;;11.47;92.08;101035.88;5052720;28;20041;-88
2023/04/06 10:08:55;;;;;;;13.70;8.23;;;;;;;11.58;92.20;101064.44;5053277;28;20044;-88
2023/04/06 10:11:21;;;;;;;12.95;8.13;;;;;;;11.66;91.95;101063.94;5036109;28;20048;-87
2023/04/06 10:13:48;;;;;;;16.60;8.52;;;;;;;11.44;91.78;101020.94;5052805;28;20025;-86
2023/04/06 10:16:15;;;;;;;15.35;7.97;;;;;;;11.79;91.66;101074.28;5036974;28;20040;-88
2023/04/06 10:18:46;;;;;;;15.05;8.55;;;;;;;11.46;91.24;101014.09;5053124;28;20063;-88
2023/04/06 10:21:13;;;;;;;15.73;8.23;;;;;;;11.60;91.44;101047.13;5051772;28;20036;-88
2023/04/06 10:23:49;;;;;;;15.13;8.63;;;;;;;11.79;91.97;101074.28;5033476;28;20040;-87
2023/04/06 10:26:16;;;;;;;13.68;8.35;;;;;;;11.28;92.31;100990.47;5052047;28;20028;-88
2023/04/06 10:28:43;;;;;;;15.88;8.43;;;;;;;11.33;91.53;100994.22;5036517;28;20039;-88
2023/04/06 10:31:09;;;;;;;13.73;8.27;;;;;;;11.77;91.72;101063.72;5053019;28;20050;-88
2023/04/06 10:33:35;;;;;;;15.27;8.38;;;;;;;11.79;91.64;101062.09;5053196;28;20025;-87
2023/04/06 10:36:11;;;;;;;17.75;9.55;;;;;;;11.76;91.14;101059.28;5040154;28;20035;-87
2023/04/06 10:38:38;;;;;;;13.02;7.93;;;;;;;11.73;91.55;101048.69;5036059;28;20111;-88
2023/04/06 10:41:08;;;;;;;13.82;8.60;;;;;;;11.60;91.67;101025.31;5055898;28;20056;-88
2023/04/06 10:43:35;;;;;;;14.35;7.93;;;;;;;11.79;91.52;101045.50;5071788;28;20032;-88
2023/04/06 10:46:01;;;;;;;14.02;8.50;;;;;;;11.66;91.64;101022.97;5072677;28;20036;-86
2023/04/06 10:48:43;;;;;;;12.40;8.48;;;;;;;11.81;90.89;101033.41;5072605;28;20123;-87
2023/04/06 10:51:14;;;;;;;13.65;8.02;;;;;;;11.63;90.93;101001.91;5061364;28;20101;-87
2023/04/06 10:53:48;;;;;;;15.15;8.52;;;;;;;11.65;91.39;101002.88;5072953;28;20020;-86
2023/04/06 10:56:15;;;;;;;13.52;8.30;;;;;;;11.81;91.39;101028.16;5090538;28;20028;-86
2023/04/06 10:58:59;;;;;;;14.10;8.52;;;;;;;11.62;91.95;100994.91;5072519;28;20032;-87
2023/04/06 11:01:27;;;;;;;13.90;8.70;;;;;;;11.82;91.58;101016.88;5089563;28;20024;-86
2023/04/06 11:03:55;;;;;;;11.95;8.13;;;;;;;11.85;91.41;101026.59;5064093;28;20028;-86
2023/04/06 11:06:32;;;;;;;13.60;8.05;;;;;;;11.82;92.31;101016.88;5049224;28;20509;-86
2023/04/06 11:08:58;;;;;;;14.95;8.57;;;;;;;11.78;92.90;101000.09;5080431;28;20024;-85
2023/04/06 11:11:26;;;;;;;13.73;9.07;;;;;;;11.89;92.29;101019.00;5068304;28;20704;-86
2023/04/06 11:13:55;;;;;;;14.75;8.68;;;;;;;11.92;92.98;101018.28;5095022;28;20082;-86
2023/04/06 11:16:31;;;;;;;15.63;8.32;;;;;;;11.72;93.60;100978.84;5089793;28;20050;-86
2023/04/06 11:19:01;;;;;;;15.38;8.82;;;;;;;11.79;93.29;100991.44;5072082;28;20019;-86
2023/04/06 11:21:38;;;;;;;16.90;8.73;;;;;;;11.93;93.79;101023.59;5072338;28;20519;-85